sensor_id;sensor_type;location;lat;lon;timestamp;P1;durP1;ratioP1;P2;durP2;ratioP2
20896;SDS011;10608;42.600;23.398;2024-03-02T00:01:20;73.07;;;67.57;;
20896;SDS011;10608;42.600;23.398;2024-03-02T00:03:45;72.03;;;66.63;;
20896;SDS011;10608;42.600;23.398;2024-03-02T00:06:11;69.67;;;64.37;;
20896;SDS011;10608;42.600;23.398;2024-03-02T00:08:37;81.10;;;75.70;;
20896;SDS011;10608;42.600;23.398;2024-03-02T00:11:02;80.80;;;75.03;;
20896;SDS011;10608;42.600;23.398;2024-03-02T00:13:28;81.60;;;76.00;;
20896;SDS011;10608;42.600;23.398;2024-03-02T00:15:55;82.57;;;76.87;;
20896;SDS011;10608;42.600;23.398;2024-03-02T00:20:54;88.37;;;82.40;;
20896;SDS011;10608;42.600;23.398;2024-03-02T00:23:24;64.20;;;59.03;;
20896;SDS011;10608;42.600;23.398;2024-03-02T00:25:54;59.93;;;54.87;;
20896;SDS011;10608;42.600;23.398;2024-03-02T00:28:29;60.60;;;55.77;;
20896;SDS011;10608;42.600;23.398;2024-03-02T00:30:59;57.10;;;52.53;;
20896;SDS011;10608;42.600;23.398;2024-03-02T00:36:05;63.10;;;57.83;;
20896;SDS011;10608;42.600;23.398;2024-03-02T00:38:32;55.87;;;51.13;;
20896;SDS011;10608;42.600;23.398;2024-03-02T00:40:59;57.80;;;53.00;;
20896;SDS011;10608;42.600;23.398;2024-03-02T00:46:00;52.43;;;48.13;;
20896;SDS011;10608;42.600;23.398;2024-03-02T00:48:25;62.20;;;57.03;;
20896;SDS011;10608;42.600;23.398;2024-03-02T00:50:52;53.97;;;49.23;;
20896;SDS011;10608;42.600;23.398;2024-03-02T00:53:17;58.03;;;53.50;;
20896;SDS011;10608;42.600;23.398;2024-03-02T00:55:49;52.67;;;48.43;;
20896;SDS011;10608;42.600;23.398;2024-03-02T00:58:15;50.63;;;46.30;;
20896;SDS011;10608;42.600;23.398;2024-03-02T01:00:40;58.73;;;53.80;;
20896;SDS011;10608;42.600;23.398;2024-03-02T01:03:06;79.70;;;74.53;;
20896;SDS011;10608;42.600;23.398;2024-03-02T01:05:32;139.57;;;131.87;;
20896;SDS011;10608;42.600;23.398;2024-03-02T01:07:58;102.20;;;96.03;;
20896;SDS011;10608;42.600;23.398;2024-03-02T01:10:23;65.47;;;61.13;;
20896;SDS011;10608;42.600;23.398;2024-03-02T01:12:50;60.43;;;56.33;;
20896;SDS011;10608;42.600;23.398;2024-03-02T01:15:16;74.93;;;70.33;;
20896;SDS011;10608;42.600;23.398;2024-03-02T01:17:41;65.13;;;60.50;;
20896;SDS011;10608;42.600;23.398;2024-03-02T01:20:07;78.07;;;73.00;;
20896;SDS011;10608;42.600;23.398;2024-03-02T01:22:34;77.53;;;72.87;;
20896;SDS011;10608;42.600;23.398;2024-03-02T01:25:00;81.57;;;76.63;;
20896;SDS011;10608;42.600;23.398;2024-03-02T01:27:26;76.20;;;71.13;;
20896;SDS011;10608;42.600;23.398;2024-03-02T01:29:52;73.20;;;68.23;;
20896;SDS011;10608;42.600;23.398;2024-03-02T01:32:17;70.90;;;66.10;;
20896;SDS011;10608;42.600;23.398;2024-03-02T01:34:43;77.50;;;72.27;;
20896;SDS011;10608;42.600;23.398;2024-03-02T01:37:08;62.97;;;58.60;;
20896;SDS011;10608;42.600;23.398;2024-03-02T01:39:35;55.77;;;51.93;;
20896;SDS011;10608;42.600;23.398;2024-03-02T01:42:00;52.53;;;48.40;;
20896;SDS011;10608;42.600;23.398;2024-03-02T01:44:26;54.93;;;50.97;;
20896;SDS011;10608;42.600;23.398;2024-03-02T01:46:51;55.13;;;51.17;;
20896;SDS011;10608;42.600;23.398;2024-03-02T01:49:17;61.30;;;57.03;;
20896;SDS011;10608;42.600;23.398;2024-03-02T01:51:43;64.47;;;60.00;;
20896;SDS011;10608;42.600;23.398;2024-03-02T01:54:09;78.37;;;73.27;;
20896;SDS011;10608;42.600;23.398;2024-03-02T01:56:34;77.40;;;72.77;;
20896;SDS011;10608;42.600;23.398;2024-03-02T01:59:00;70.97;;;65.87;;
20896;SDS011;10608;42.600;23.398;2024-03-02T02:01:26;63.83;;;59.03;;
20896;SDS011;10608;42.600;23.398;2024-03-02T02:03:51;57.90;;;53.77;;
20896;SDS011;10608;42.600;23.398;2024-03-02T02:06:17;60.13;;;56.20;;
20896;SDS011;10608;42.600;23.398;2024-03-02T02:08:42;77.77;;;72.60;;
20896;SDS011;10608;42.600;23.398;2024-03-02T02:11:08;88.63;;;82.97;;
20896;SDS011;10608;42.600;23.398;2024-03-02T02:13:33;101.67;;;95.37;;
20896;SDS011;10608;42.600;23.398;2024-03-02T02:16:06;113.93;;;107.40;;
20896;SDS011;10608;42.600;23.398;2024-03-02T02:18:32;108.63;;;102.40;;
20896;SDS011;10608;42.600;23.398;2024-03-02T02:20:58;94.53;;;89.17;;
20896;SDS011;10608;42.600;23.398;2024-03-02T02:23:23;87.63;;;82.50;;
20896;SDS011;10608;42.600;23.398;2024-03-02T02:25:48;91.40;;;86.20;;
20896;SDS011;10608;42.600;23.398;2024-03-02T02:28:14;101.20;;;95.27;;
20896;SDS011;10608;42.600;23.398;2024-03-02T02:30:39;92.67;;;87.27;;
20896;SDS011;10608;42.600;23.398;2024-03-02T02:33:05;95.30;;;89.63;;
20896;SDS011;10608;42.600;23.398;2024-03-02T02:35:30;85.40;;;80.10;;
20896;SDS011;10608;42.600;23.398;2024-03-02T02:37:55;84.60;;;79.73;;
20896;SDS011;10608;42.600;23.398;2024-03-02T02:40:22;58.27;;;54.27;;
20896;SDS011;10608;42.600;23.398;2024-03-02T02:42:48;55.43;;;51.40;;
20896;SDS011;10608;42.600;23.398;2024-03-02T02:45:13;55.37;;;51.27;;
20896;SDS011;10608;42.600;23.398;2024-03-02T02:47:40;49.17;;;45.30;;
20896;SDS011;10608;42.600;23.398;2024-03-02T02:50:09;53.83;;;50.13;;
20896;SDS011;10608;42.600;23.398;2024-03-02T02:52:37;50.47;;;47.00;;
20896;SDS011;10608;42.600;23.398;2024-03-02T02:55:05;57.57;;;53.50;;
20896;SDS011;10608;42.600;23.398;2024-03-02T02:57:32;57.10;;;52.87;;
20896;SDS011;10608;42.600;23.398;2024-03-02T03:00:01;59.20;;;55.00;;
20896;SDS011;10608;42.600;23.398;2024-03-02T03:02:30;60.37;;;56.40;;
20896;SDS011;10608;42.600;23.398;2024-03-02T03:04:56;52.50;;;49.00;;
20896;SDS011;10608;42.600;23.398;2024-03-02T03:07:22;55.20;;;51.37;;
20896;SDS011;10608;42.600;23.398;2024-03-02T03:09:48;52.40;;;48.90;;
20896;SDS011;10608;42.600;23.398;2024-03-02T03:12:13;53.93;;;50.23;;
20896;SDS011;10608;42.600;23.398;2024-03-02T03:14:40;60.07;;;56.00;;
20896;SDS011;10608;42.600;23.398;2024-03-02T03:17:06;66.03;;;61.50;;
20896;SDS011;10608;42.600;23.398;2024-03-02T03:19:33;65.73;;;61.40;;
20896;SDS011;10608;42.600;23.398;2024-03-02T03:21:58;70.87;;;66.33;;
20896;SDS011;10608;42.600;23.398;2024-03-02T03:24:24;68.53;;;63.73;;
20896;SDS011;10608;42.600;23.398;2024-03-02T03:26:49;63.23;;;58.87;;
20896;SDS011;10608;42.600;23.398;2024-03-02T03:29:14;62.67;;;58.27;;
20896;SDS011;10608;42.600;23.398;2024-03-02T03:31:40;61.87;;;57.60;;
20896;SDS011;10608;42.600;23.398;2024-03-02T03:34:05;63.37;;;58.87;;
20896;SDS011;10608;42.600;23.398;2024-03-02T03:36:31;60.97;;;56.27;;
20896;SDS011;10608;42.600;23.398;2024-03-02T03:38:56;50.70;;;47.10;;
20896;SDS011;10608;42.600;23.398;2024-03-02T03:41:23;43.73;;;40.50;;
20896;SDS011;10608;42.600;23.398;2024-03-02T03:43:50;47.10;;;43.47;;
20896;SDS011;10608;42.600;23.398;2024-03-02T03:46:16;51.37;;;47.50;;
20896;SDS011;10608;42.600;23.398;2024-03-02T03:48:42;52.73;;;48.87;;
20896;SDS011;10608;42.600;23.398;2024-03-02T03:51:07;56.60;;;52.50;;
20896;SDS011;10608;42.600;23.398;2024-03-02T03:53:33;55.43;;;51.47;;
20896;SDS011;10608;42.600;23.398;2024-03-02T03:55:58;50.60;;;46.80;;
20896;SDS011;10608;42.600;23.398;2024-03-02T03:58:23;57.90;;;53.70;;
20896;SDS011;10608;42.600;23.398;2024-03-02T04:00:49;74.33;;;69.50;;
20896;SDS011;10608;42.600;23.398;2024-03-02T04:03:14;79.37;;;74.10;;
20896;SDS011;10608;42.600;23.398;2024-03-02T04:05:39;69.37;;;64.50;;
20896;SDS011;10608;42.600;23.398;2024-03-02T04:08:05;69.03;;;64.03;;
20896;SDS011;10608;42.600;23.398;2024-03-02T04:10:30;81.30;;;76.10;;
20896;SDS011;10608;42.600;23.398;2024-03-02T04:12:56;83.20;;;77.73;;
20896;SDS011;10608;42.600;23.398;2024-03-02T04:15:21;89.87;;;84.37;;
20896;SDS011;10608;42.600;23.398;2024-03-02T04:17:48;94.97;;;89.13;;
20896;SDS011;10608;42.600;23.398;2024-03-02T04:20:13;92.17;;;86.63;;
20896;SDS011;10608;42.600;23.398;2024-03-02T04:22:39;80.53;;;75.27;;
20896;SDS011;10608;42.600;23.398;2024-03-02T04:25:04;73.97;;;68.67;;
20896;SDS011;10608;42.600;23.398;2024-03-02T04:27:30;64.77;;;60.50;;
20896;SDS011;10608;42.600;23.398;2024-03-02T04:29:59;68.37;;;63.83;;
20896;SDS011;10608;42.600;23.398;2024-03-02T04:32:25;68.97;;;64.33;;
20896;SDS011;10608;42.600;23.398;2024-03-02T04:34:52;66.03;;;61.37;;
20896;SDS011;10608;42.600;23.398;2024-03-02T04:37:17;64.40;;;60.23;;
20896;SDS011;10608;42.600;23.398;2024-03-02T04:39:43;66.03;;;61.70;;
20896;SDS011;10608;42.600;23.398;2024-03-02T04:42:08;68.90;;;64.27;;
20896;SDS011;10608;42.600;23.398;2024-03-02T04:44:33;68.27;;;63.60;;
20896;SDS011;10608;42.600;23.398;2024-03-02T04:46:59;66.90;;;62.47;;
20896;SDS011;10608;42.600;23.398;2024-03-02T04:49:24;72.77;;;67.77;;
20896;SDS011;10608;42.600;23.398;2024-03-02T04:51:50;76.57;;;71.83;;
20896;SDS011;10608;42.600;23.398;2024-03-02T04:54:15;69.80;;;65.37;;
20896;SDS011;10608;42.600;23.398;2024-03-02T04:56:41;62.90;;;58.70;;
20896;SDS011;10608;42.600;23.398;2024-03-02T04:59:09;53.07;;;49.63;;
20896;SDS011;10608;42.600;23.398;2024-03-02T05:01:35;47.60;;;44.07;;
20896;SDS011;10608;42.600;23.398;2024-03-02T05:04:01;44.97;;;41.67;;
20896;SDS011;10608;42.600;23.398;2024-03-02T05:06:26;45.03;;;41.83;;
20896;SDS011;10608;42.600;23.398;2024-03-02T05:08:52;48.43;;;45.03;;
20896;SDS011;10608;42.600;23.398;2024-03-02T05:11:17;54.40;;;50.70;;
20896;SDS011;10608;42.600;23.398;2024-03-02T05:14:01;52.27;;;48.57;;
20896;SDS011;10608;42.600;23.398;2024-03-02T05:16:27;44.33;;;40.83;;
20896;SDS011;10608;42.600;23.398;2024-03-02T05:18:52;42.40;;;38.93;;
20896;SDS011;10608;42.600;23.398;2024-03-02T05:21:17;49.47;;;45.57;;
20896;SDS011;10608;42.600;23.398;2024-03-02T05:23:43;75.63;;;70.90;;
20896;SDS011;10608;42.600;23.398;2024-03-02T05:26:09;76.27;;;71.67;;
20896;SDS011;10608;42.600;23.398;2024-03-02T05:28:37;72.03;;;67.30;;
20896;SDS011;10608;42.600;23.398;2024-03-02T05:31:03;69.90;;;65.30;;
20896;SDS011;10608;42.600;23.398;2024-03-02T05:33:29;69.73;;;64.80;;
20896;SDS011;10608;42.600;23.398;2024-03-02T05:35:56;74.60;;;69.60;;
20896;SDS011;10608;42.600;23.398;2024-03-02T05:38:21;62.17;;;58.07;;
20896;SDS011;10608;42.600;23.398;2024-03-02T05:40:47;56.97;;;53.27;;
20896;SDS011;10608;42.600;23.398;2024-03-02T05:43:12;59.93;;;55.57;;
20896;SDS011;10608;42.600;23.398;2024-03-02T05:45:38;59.57;;;55.57;;
20896;SDS011;10608;42.600;23.398;2024-03-02T05:48:05;69.43;;;64.50;;
20896;SDS011;10608;42.600;23.398;2024-03-02T05:50:33;69.63;;;64.93;;
20896;SDS011;10608;42.600;23.398;2024-03-02T05:52:58;69.27;;;64.53;;
20896;SDS011;10608;42.600;23.398;2024-03-02T05:55:24;72.67;;;67.77;;
20896;SDS011;10608;42.600;23.398;2024-03-02T05:57:50;71.77;;;67.07;;
20896;SDS011;10608;42.600;23.398;2024-03-02T06:00:33;71.17;;;66.67;;
20896;SDS011;10608;42.600;23.398;2024-03-02T06:02:59;76.27;;;71.20;;
20896;SDS011;10608;42.600;23.398;2024-03-02T06:05:24;80.80;;;75.83;;
20896;SDS011;10608;42.600;23.398;2024-03-02T06:07:50;83.40;;;78.00;;
20896;SDS011;10608;42.600;23.398;2024-03-02T06:10:15;77.47;;;72.80;;
20896;SDS011;10608;42.600;23.398;2024-03-02T06:12:41;72.63;;;68.03;;
20896;SDS011;10608;42.600;23.398;2024-03-02T06:15:07;59.47;;;55.63;;
20896;SDS011;10608;42.600;23.398;2024-03-02T06:17:34;61.03;;;57.27;;
20896;SDS011;10608;42.600;23.398;2024-03-02T06:20:00;56.77;;;53.07;;
20896;SDS011;10608;42.600;23.398;2024-03-02T06:22:25;52.97;;;48.90;;
20896;SDS011;10608;42.600;23.398;2024-03-02T06:24:51;54.30;;;50.47;;
20896;SDS011;10608;42.600;23.398;2024-03-02T06:27:16;56.33;;;52.53;;
20896;SDS011;10608;42.600;23.398;2024-03-02T06:29:42;69.50;;;64.90;;
20896;SDS011;10608;42.600;23.398;2024-03-02T06:32:07;65.33;;;61.10;;
20896;SDS011;10608;42.600;23.398;2024-03-02T06:34:33;63.10;;;59.13;;
20896;SDS011;10608;42.600;23.398;2024-03-02T06:36:58;62.90;;;58.87;;
20896;SDS011;10608;42.600;23.398;2024-03-02T06:39:23;58.93;;;55.10;;
20896;SDS011;10608;42.600;23.398;2024-03-02T06:41:50;60.37;;;56.30;;
20896;SDS011;10608;42.600;23.398;2024-03-02T06:44:16;66.77;;;62.60;;
20896;SDS011;10608;42.600;23.398;2024-03-02T06:46:41;69.73;;;65.37;;
20896;SDS011;10608;42.600;23.398;2024-03-02T06:49:07;77.67;;;72.53;;
20896;SDS011;10608;42.600;23.398;2024-03-02T06:51:33;72.57;;;67.53;;
20896;SDS011;10608;42.600;23.398;2024-03-02T06:53:59;82.07;;;76.57;;
20896;SDS011;10608;42.600;23.398;2024-03-02T06:56:24;85.80;;;80.47;;
20896;SDS011;10608;42.600;23.398;2024-03-02T06:58:49;94.57;;;88.77;;
20896;SDS011;10608;42.600;23.398;2024-03-02T07:01:15;95.67;;;90.07;;
20896;SDS011;10608;42.600;23.398;2024-03-02T07:03:40;85.07;;;79.63;;
20896;SDS011;10608;42.600;23.398;2024-03-02T07:06:06;83.57;;;78.00;;
20896;SDS011;10608;42.600;23.398;2024-03-02T07:08:31;82.77;;;77.70;;
20896;SDS011;10608;42.600;23.398;2024-03-02T07:10:56;66.47;;;62.17;;
20896;SDS011;10608;42.600;23.398;2024-03-02T07:13:22;58.97;;;54.67;;
20896;SDS011;10608;42.600;23.398;2024-03-02T07:15:48;63.27;;;58.80;;
20896;SDS011;10608;42.600;23.398;2024-03-02T07:18:33;53.87;;;49.77;;
20896;SDS011;10608;42.600;23.398;2024-03-02T07:21:00;54.27;;;50.47;;
20896;SDS011;10608;42.600;23.398;2024-03-02T07:23:26;47.10;;;43.37;;
20896;SDS011;10608;42.600;23.398;2024-03-02T07:25:52;45.57;;;42.13;;
20896;SDS011;10608;42.600;23.398;2024-03-02T07:28:21;56.27;;;52.60;;
20896;SDS011;10608;42.600;23.398;2024-03-02T07:30:47;83.73;;;78.73;;
20896;SDS011;10608;42.600;23.398;2024-03-02T07:33:13;72.33;;;67.87;;
20896;SDS011;10608;42.600;23.398;2024-03-02T07:35:41;60.50;;;56.60;;
20896;SDS011;10608;42.600;23.398;2024-03-02T07:38:08;61.67;;;57.43;;
20896;SDS011;10608;42.600;23.398;2024-03-02T07:40:33;56.97;;;53.13;;
20896;SDS011;10608;42.600;23.398;2024-03-02T07:42:59;55.67;;;51.73;;
20896;SDS011;10608;42.600;23.398;2024-03-02T07:45:24;51.17;;;47.43;;
20896;SDS011;10608;42.600;23.398;2024-03-02T07:47:49;51.93;;;48.03;;
20896;SDS011;10608;42.600;23.398;2024-03-02T07:50:15;52.00;;;48.50;;
20896;SDS011;10608;42.600;23.398;2024-03-02T07:52:41;50.07;;;46.30;;
20896;SDS011;10608;42.600;23.398;2024-03-02T07:55:06;48.83;;;45.27;;
20896;SDS011;10608;42.600;23.398;2024-03-02T07:57:32;47.20;;;43.63;;
20896;SDS011;10608;42.600;23.398;2024-03-02T07:59:57;47.70;;;44.17;;
20896;SDS011;10608;42.600;23.398;2024-03-02T08:02:24;47.53;;;43.70;;
20896;SDS011;10608;42.600;23.398;2024-03-02T08:04:49;48.80;;;45.13;;
20896;SDS011;10608;42.600;23.398;2024-03-02T08:07:15;54.83;;;50.60;;
20896;SDS011;10608;42.600;23.398;2024-03-02T08:09:41;52.77;;;49.00;;
20896;SDS011;10608;42.600;23.398;2024-03-02T08:12:06;53.60;;;49.60;;
20896;SDS011;10608;42.600;23.398;2024-03-02T08:14:32;53.97;;;49.80;;
20896;SDS011;10608;42.600;23.398;2024-03-02T08:16:57;50.47;;;46.43;;
20896;SDS011;10608;42.600;23.398;2024-03-02T08:19:22;47.10;;;43.57;;
20896;SDS011;10608;42.600;23.398;2024-03-02T08:21:48;48.83;;;45.27;;
20896;SDS011;10608;42.600;23.398;2024-03-02T08:24:13;50.30;;;46.83;;
20896;SDS011;10608;42.600;23.398;2024-03-02T08:26:39;57.10;;;52.93;;
20896;SDS011;10608;42.600;23.398;2024-03-02T08:29:04;63.93;;;59.43;;
20896;SDS011;10608;42.600;23.398;2024-03-02T08:31:30;56.17;;;52.17;;
20896;SDS011;10608;42.600;23.398;2024-03-02T08:33:55;54.30;;;49.57;;
20896;SDS011;10608;42.600;23.398;2024-03-02T08:36:22;49.03;;;45.23;;
20896;SDS011;10608;42.600;23.398;2024-03-02T08:38:48;52.40;;;48.17;;
20896;SDS011;10608;42.600;23.398;2024-03-02T08:41:14;54.63;;;50.60;;
20896;SDS011;10608;42.600;23.398;2024-03-02T08:43:41;53.53;;;49.60;;
20896;SDS011;10608;42.600;23.398;2024-03-02T08:46:07;59.23;;;54.77;;
20896;SDS011;10608;42.600;23.398;2024-03-02T08:48:32;64.17;;;59.37;;
20896;SDS011;10608;42.600;23.398;2024-03-02T08:50:58;64.03;;;59.33;;
20896;SDS011;10608;42.600;23.398;2024-03-02T08:53:23;53.83;;;49.27;;
20896;SDS011;10608;42.600;23.398;2024-03-02T08:55:49;41.07;;;37.33;;
20896;SDS011;10608;42.600;23.398;2024-03-02T08:58:14;37.37;;;33.67;;
20896;SDS011;10608;42.600;23.398;2024-03-02T09:00:40;42.97;;;39.13;;
20896;SDS011;10608;42.600;23.398;2024-03-02T09:03:06;48.63;;;44.73;;
20896;SDS011;10608;42.600;23.398;2024-03-02T09:05:32;39.97;;;36.60;;
20896;SDS011;10608;42.600;23.398;2024-03-02T09:07:57;51.13;;;46.60;;
20896;SDS011;10608;42.600;23.398;2024-03-02T09:10:23;57.13;;;52.77;;
20896;SDS011;10608;42.600;23.398;2024-03-02T09:12:48;60.90;;;56.60;;
20896;SDS011;10608;42.600;23.398;2024-03-02T09:15:15;55.20;;;51.53;;
20896;SDS011;10608;42.600;23.398;2024-03-02T09:17:40;56.47;;;52.13;;
20896;SDS011;10608;42.600;23.398;2024-03-02T09:20:06;57.57;;;53.40;;
20896;SDS011;10608;42.600;23.398;2024-03-02T09:22:32;48.57;;;44.97;;
20896;SDS011;10608;42.600;23.398;2024-03-02T09:24:57;53.87;;;50.27;;
20896;SDS011;10608;42.600;23.398;2024-03-02T09:27:23;49.77;;;46.40;;
20896;SDS011;10608;42.600;23.398;2024-03-02T09:29:49;48.83;;;45.27;;
20896;SDS011;10608;42.600;23.398;2024-03-02T09:32:14;46.37;;;43.47;;
20896;SDS011;10608;42.600;23.398;2024-03-02T09:34:40;45.50;;;42.10;;
20896;SDS011;10608;42.600;23.398;2024-03-02T09:37:06;34.53;;;31.40;;
20896;SDS011;10608;42.600;23.398;2024-03-02T09:39:32;31.07;;;28.77;;
20896;SDS011;10608;42.600;23.398;2024-03-02T09:41:57;38.63;;;35.73;;
20896;SDS011;10608;42.600;23.398;2024-03-02T09:44:24;39.10;;;35.97;;
20896;SDS011;10608;42.600;23.398;2024-03-02T09:46:50;32.30;;;29.57;;
20896;SDS011;10608;42.600;23.398;2024-03-02T09:49:16;31.73;;;29.40;;
20896;SDS011;10608;42.600;23.398;2024-03-02T09:51:46;39.83;;;36.83;;
20896;SDS011;10608;42.600;23.398;2024-03-02T09:54:12;50.67;;;46.37;;
20896;SDS011;10608;42.600;23.398;2024-03-02T09:56:38;42.03;;;37.93;;
20896;SDS011;10608;42.600;23.398;2024-03-02T09:59:04;41.37;;;37.67;;
20896;SDS011;10608;42.600;23.398;2024-03-02T10:01:30;56.53;;;52.10;;
20896;SDS011;10608;42.600;23.398;2024-03-02T10:03:57;58.03;;;53.20;;
20896;SDS011;10608;42.600;23.398;2024-03-02T10:06:25;43.47;;;39.27;;
20896;SDS011;10608;42.600;23.398;2024-03-02T10:08:52;56.40;;;51.73;;
20896;SDS011;10608;42.600;23.398;2024-03-02T10:14:07;56.07;;;51.10;;
20896;SDS011;10608;42.600;23.398;2024-03-02T10:16:34;46.10;;;42.13;;
20896;SDS011;10608;42.600;23.398;2024-03-02T10:19:14;50.10;;;45.87;;
20896;SDS011;10608;42.600;23.398;2024-03-02T10:21:40;52.13;;;47.37;;
20896;SDS011;10608;42.600;23.398;2024-03-02T10:24:09;56.17;;;51.57;;
20896;SDS011;10608;42.600;23.398;2024-03-02T10:26:34;49.90;;;45.80;;
20896;SDS011;10608;42.600;23.398;2024-03-02T10:28:59;46.83;;;42.90;;
20896;SDS011;10608;42.600;23.398;2024-03-02T10:31:25;47.97;;;43.77;;
20896;SDS011;10608;42.600;23.398;2024-03-02T10:33:54;51.03;;;46.47;;
20896;SDS011;10608;42.600;23.398;2024-03-02T10:36:20;66.70;;;61.33;;
20896;SDS011;10608;42.600;23.398;2024-03-02T10:38:46;58.30;;;53.67;;
20896;SDS011;10608;42.600;23.398;2024-03-02T10:41:34;56.47;;;51.13;;
20896;SDS011;10608;42.600;23.398;2024-03-02T10:44:01;62.03;;;57.40;;
20896;SDS011;10608;42.600;23.398;2024-03-02T10:46:28;47.10;;;43.20;;
20896;SDS011;10608;42.600;23.398;2024-03-02T10:48:55;59.27;;;54.87;;
20896;SDS011;10608;42.600;23.398;2024-03-02T10:51:24;61.80;;;57.00;;
20896;SDS011;10608;42.600;23.398;2024-03-02T10:53:51;57.10;;;52.60;;
20896;SDS011;10608;42.600;23.398;2024-03-02T10:56:21;53.43;;;49.17;;
20896;SDS011;10608;42.600;23.398;2024-03-02T10:58:53;60.23;;;55.73;;
20896;SDS011;10608;42.600;23.398;2024-03-02T11:01:29;47.57;;;43.80;;
20896;SDS011;10608;42.600;23.398;2024-03-02T11:03:56;41.50;;;37.73;;
20896;SDS011;10608;42.600;23.398;2024-03-02T11:06:23;40.30;;;36.63;;
20896;SDS011;10608;42.600;23.398;2024-03-02T11:08:51;44.93;;;40.97;;
20896;SDS011;10608;42.600;23.398;2024-03-02T11:11:21;55.33;;;51.40;;
20896;SDS011;10608;42.600;23.398;2024-03-02T11:13:54;57.37;;;53.23;;
20896;SDS011;10608;42.600;23.398;2024-03-02T11:16:32;43.30;;;39.87;;
20896;SDS011;10608;42.600;23.398;2024-03-02T11:19:05;44.93;;;41.40;;
20896;SDS011;10608;42.600;23.398;2024-03-02T11:21:35;44.60;;;41.27;;
20896;SDS011;10608;42.600;23.398;2024-03-02T11:26:46;47.07;;;43.30;;
20896;SDS011;10608;42.600;23.398;2024-03-02T11:29:38;42.23;;;39.10;;
20896;SDS011;10608;42.600;23.398;2024-03-02T11:34:35;39.23;;;36.07;;
20896;SDS011;10608;42.600;23.398;2024-03-02T11:37:01;42.90;;;39.90;;
20896;SDS011;10608;42.600;23.398;2024-03-02T11:39:29;40.47;;;37.57;;
20896;SDS011;10608;42.600;23.398;2024-03-02T11:41:55;50.57;;;47.13;;
20896;SDS011;10608;42.600;23.398;2024-03-02T11:44:22;58.53;;;54.70;;
20896;SDS011;10608;42.600;23.398;2024-03-02T11:47:10;62.33;;;58.47;;
20896;SDS011;10608;42.600;23.398;2024-03-02T11:49:39;57.23;;;53.33;;
20896;SDS011;10608;42.600;23.398;2024-03-02T11:52:14;76.47;;;70.83;;
20896;SDS011;10608;42.600;23.398;2024-03-02T11:54:43;64.63;;;60.13;;
20896;SDS011;10608;42.600;23.398;2024-03-02T11:57:17;72.43;;;67.97;;
20896;SDS011;10608;42.600;23.398;2024-03-02T11:59:44;76.30;;;71.80;;
20896;SDS011;10608;42.600;23.398;2024-03-02T12:02:17;74.33;;;69.63;;
20896;SDS011;10608;42.600;23.398;2024-03-02T12:04:46;75.30;;;70.90;;
20896;SDS011;10608;42.600;23.398;2024-03-02T12:07:18;79.83;;;75.43;;
20896;SDS011;10608;42.600;23.398;2024-03-02T12:09:45;72.27;;;67.93;;
20896;SDS011;10608;42.600;23.398;2024-03-02T12:12:11;65.60;;;61.47;;
20896;SDS011;10608;42.600;23.398;2024-03-02T12:14:37;64.30;;;60.03;;
20896;SDS011;10608;42.600;23.398;2024-03-02T12:17:03;58.40;;;54.80;;
20896;SDS011;10608;42.600;23.398;2024-03-02T12:19:30;56.47;;;52.97;;
20896;SDS011;10608;42.600;23.398;2024-03-02T12:21:57;68.67;;;64.43;;
20896;SDS011;10608;42.600;23.398;2024-03-02T12:24:23;60.47;;;56.57;;
20896;SDS011;10608;42.600;23.398;2024-03-02T12:26:51;53.40;;;49.93;;
20896;SDS011;10608;42.600;23.398;2024-03-02T12:29:18;62.90;;;58.87;;
20896;SDS011;10608;42.600;23.398;2024-03-02T12:31:44;62.33;;;58.40;;
20896;SDS011;10608;42.600;23.398;2024-03-02T12:34:13;60.83;;;56.87;;
20896;SDS011;10608;42.600;23.398;2024-03-02T12:36:39;55.23;;;51.63;;
20896;SDS011;10608;42.600;23.398;2024-03-02T12:39:06;63.50;;;59.47;;
20896;SDS011;10608;42.600;23.398;2024-03-02T12:41:33;67.83;;;63.60;;
20896;SDS011;10608;42.600;23.398;2024-03-02T12:44:06;67.63;;;63.63;;
20896;SDS011;10608;42.600;23.398;2024-03-02T12:46:32;50.80;;;47.73;;
20896;SDS011;10608;42.600;23.398;2024-03-02T12:49:21;59.73;;;55.47;;
20896;SDS011;10608;42.600;23.398;2024-03-02T12:51:47;50.70;;;47.07;;
20896;SDS011;10608;42.600;23.398;2024-03-02T12:54:16;48.93;;;45.73;;
20896;SDS011;10608;42.600;23.398;2024-03-02T12:56:42;50.57;;;47.27;;
20896;SDS011;10608;42.600;23.398;2024-03-02T12:59:17;47.80;;;44.43;;
20896;SDS011;10608;42.600;23.398;2024-03-02T13:01:52;44.27;;;41.17;;
20896;SDS011;10608;42.600;23.398;2024-03-02T13:04:21;38.70;;;35.97;;
20896;SDS011;10608;42.600;23.398;2024-03-02T13:06:49;42.03;;;38.80;;
20896;SDS011;10608;42.600;23.398;2024-03-02T13:09:15;38.80;;;35.87;;
20896;SDS011;10608;42.600;23.398;2024-03-02T13:11:41;38.07;;;35.17;;
20896;SDS011;10608;42.600;23.398;2024-03-02T13:14:07;38.77;;;35.70;;
20896;SDS011;10608;42.600;23.398;2024-03-02T13:16:37;41.83;;;38.83;;
20896;SDS011;10608;42.600;23.398;2024-03-02T13:19:04;44.10;;;41.20;;
20896;SDS011;10608;42.600;23.398;2024-03-02T13:21:33;41.77;;;39.07;;
20896;SDS011;10608;42.600;23.398;2024-03-02T13:23:58;41.73;;;38.87;;
20896;SDS011;10608;42.600;23.398;2024-03-02T13:26:24;45.03;;;41.93;;
20896;SDS011;10608;42.600;23.398;2024-03-02T13:28:49;44.50;;;41.20;;
20896;SDS011;10608;42.600;23.398;2024-03-02T13:31:15;41.80;;;39.00;;
20896;SDS011;10608;42.600;23.398;2024-03-02T13:33:40;35.33;;;32.93;;
20896;SDS011;10608;42.600;23.398;2024-03-02T13:36:06;36.33;;;33.63;;
20896;SDS011;10608;42.600;23.398;2024-03-02T13:38:32;40.70;;;37.60;;
20896;SDS011;10608;42.600;23.398;2024-03-02T13:40:57;34.53;;;32.10;;
20896;SDS011;10608;42.600;23.398;2024-03-02T13:43:22;31.57;;;29.17;;
20896;SDS011;10608;42.600;23.398;2024-03-02T13:45:49;34.57;;;32.13;;
20896;SDS011;10608;42.600;23.398;2024-03-02T13:48:14;37.67;;;34.97;;
20896;SDS011;10608;42.600;23.398;2024-03-02T13:50:39;33.20;;;30.70;;
20896;SDS011;10608;42.600;23.398;2024-03-02T13:53:05;35.30;;;32.60;;
20896;SDS011;10608;42.600;23.398;2024-03-02T13:55:32;34.83;;;32.07;;
20896;SDS011;10608;42.600;23.398;2024-03-02T13:57:58;32.03;;;29.63;;
20896;SDS011;10608;42.600;23.398;2024-03-02T14:00:23;35.47;;;32.97;;
20896;SDS011;10608;42.600;23.398;2024-03-02T14:02:49;42.73;;;39.53;;
20896;SDS011;10608;42.600;23.398;2024-03-02T14:05:15;50.37;;;46.63;;
20896;SDS011;10608;42.600;23.398;2024-03-02T14:07:41;48.60;;;45.10;;
20896;SDS011;10608;42.600;23.398;2024-03-02T14:10:07;42.27;;;38.77;;
20896;SDS011;10608;42.600;23.398;2024-03-02T14:12:33;41.93;;;38.10;;
20896;SDS011;10608;42.600;23.398;2024-03-02T14:14:58;61.90;;;48.17;;
20896;SDS011;10608;42.600;23.398;2024-03-02T14:17:24;39.47;;;35.60;;
20896;SDS011;10608;42.600;23.398;2024-03-02T14:19:50;36.67;;;33.50;;
20896;SDS011;10608;42.600;23.398;2024-03-02T14:22:17;39.37;;;36.07;;